Terminal Aerodrome Forecast
Issued by NWS

Home | Current Version | Previous Version | Text Only | Print | Product List | Glossary On
Versions: 1 2 3 4 5 6 7 8 9 10 11 12 13 14
000
FTUS45 KSLC 250102 AAA
TAFENV
TAF AMD
KENV 250102Z 2501/2524 32012KT P6SM SCT060 BKN100
     FM250500 33006KT P6SM SCT060 BKN100
     FM251500 12007KT P6SM SCT060 BKN100
      AMD LTD TO CLD VIS AND WIND=

USA.gov is the U.S. government's official web portal to all federal, state and local government web resources and services.